Updated07/15/2024 1:22am 
 

Nearby Airport METAR Reports

 

KVSF - Springfield, Vermont, USA
Distance from station: WSW 8mi, 12km
Updated: 07/15/2024 12:54am
Clear
Clear
 Wind from calm
Wind: Calm
Temperature: 64°F, 18°C
Dew Point: 61°F, 16°C
Humidity: 88%
Barometer: 29.93 inHg, 1013.5 hPa
Clouds: Clear
Visibility: 10 miles, 16 km
2024/07/15 04:54 KVSF 150454Z AUTO 00000KT 10SM CLR 18/16 A2993 RMK AO2 SLP133 T01830161 403220178
KLEB - Lebanon, New Hampshire, USA
Distance from station: N 18mi, 29km
Updated: 07/15/2024 12:53am
Clear
Clear
 Wind from calm
Wind: Calm
Temperature: 64°F, 18°C
Dew Point: 63°F, 17°C
Humidity: 94%
Barometer: 29.92 inHg, 1013.2 hPa
Clouds: Clear
Visibility: 10 miles, 16 km
2024/07/15 04:53 KLEB 150453Z AUTO 00000KT 10SM CLR 18/17 A2992 RMK AO2 SLP121 T01780167 403220178
KRUT - Rutland State, Vermont, USA
Distance from station: WNW 31mi, 50km
Updated: 07/15/2024 12:56am
Clear
Clear
 Wind from SSE
Wind: SSE 8 mph, 13 km/h
Temperature: 66°F, 19°C
Dew Point: 61°F, 16°C
Humidity: 83%
Barometer: 29.93 inHg, 1013.5 hPa
Clouds: Clear
Visibility: 10 miles, 16 km
2024/07/15 04:56 KRUT 150456Z AUTO 15007KT 10SM CLR 19/16 A2993 RMK AO2 SLP125 T01890161 402890178 $
 
KEEN - Keene/Dillant, New Hampshire, USA
Distance from station: S 34mi, 55km
Updated: 07/15/2024 12:56am
Clear
Clear
 Wind from calm
Wind: Calm
Temperature: 64°F, 18°C
Dew Point: 63°F, 17°C
Humidity: 94%
Barometer: 29.94 inHg, 1013.9 hPa
Clouds: Clear
Visibility: 10 miles, 16 km
2024/07/15 04:56 KEEN 150456Z AUTO 00000KT 10SM CLR 18/17 A2994 RMK AO2 SLP139 T01780172 403110178 $
K1P1 - Plymouth, New Hampshire, USA
Distance from station: NE 42mi, 67km
Updated: 07/15/2024 1:15am
Mist, Overcast
Mist, Overcast
 Wind from calm
Wind: Calm
Temperature: 63°F, 17°C
Dew Point: 63°F, 17°C
Humidity: 100%
Barometer: 29.92 inHg, 1013.2 hPa
Summary: Mist
Clouds: Overcast
Visibility: 3/4 mile, 1.2 km
Cloud details: Overcast 500 ft
2024/07/15 05:15 K1P1 150515Z AUTO 00000KT 3/4SM BR VV005 17/17 A2992 RMK AO2 T01730167
KAFN - Jaffrey, New Hampshire, USA
Distance from station: SSE 44mi, 70km
Updated: 07/15/2024 12:52am
Mostly cloudy
Mostly cloudy
 Wind from calm
Wind: Calm
Temperature: 68°F, 20°C
Dew Point: 63°F, 17°C
Humidity: 83%
Barometer: 29.97 inHg, 1014.9 hPa
Clouds: Mostly cloudy
Visibility: 10 miles, 16 km
Cloud details: Partly cloudy 5000 ft
Mostly cloudy 6500 ft
2024/07/15 04:52 KAFN 150452Z AUTO 00000KT 10SM SCT050 BKN065 20/17 A2997 RMK AO2 SLP147 T02000172 403170189
 
KCON - Concord, New Hampshire, USA
Distance from station: ESE 45mi, 73km
Updated: 07/15/2024 12:51am
Clear
Clear
 Wind from calm
Wind: Calm
Temperature: 64°F, 18°C
Dew Point: 63°F, 17°C
Humidity: 94%
Barometer: 29.91 inHg, 1012.9 hPa
Clouds: Clear
Visibility: 10 miles, 16 km
2024/07/15 04:51 KCON 150451Z AUTO 00000KT 10SM CLR 18/17 A2991 RMK AO2 SLP128 T01830172 403220172
KLCI - Laconia Muni, New Hampshire, USA
Distance from station: ENE 49mi, 80km
Updated: 07/15/2024 12:56am
Clear
Clear
 Wind from calm
Wind: Calm
Temperature: 70°F, 21°C
Dew Point: 66°F, 19°C
Humidity: 88%
Barometer: 29.92 inHg, 1013.2 hPa
Clouds: Clear
Visibility: 10 miles, 16 km
2024/07/15 04:56 KLCI 150456Z AUTO 00000KT 10SM CLR 21/19 A2992 RMK AO2 SLP126 T02110194 403110183
KDDH - Bennington, Vermont, USA
Distance from station: SW 55mi, 89km
Updated: 07/15/2024 12:54am
Clear
Clear
 Wind from calm
Wind: Calm
Temperature: 66°F, 19°C
Dew Point: 63°F, 17°C
Humidity: 88%
Barometer: 29.93 inHg, 1013.5 hPa
Clouds: Clear
Visibility: 10 miles, 16 km
2024/07/15 04:54 KDDH 150454Z AUTO 00000KT 10SM CLR 19/17 A2993 RMK AO2 SLP128 T01940167 403000161
 
K6B0 - Middlebury, Vermont, USA
Distance from station: NW 56mi, 90km
Updated: 05/15/2024 11:55pm
NOT Current
Overcast
Overcast
 Wind from calm
Wind: Calm
Temperature: 57°F, 14°C
Dew Point: 52°F, 11°C
Humidity: 82%
Barometer: 29.84 inHg, 1010.5 hPa
Clouds: Overcast
Visibility: 10 miles, 16 km
Cloud details: Partly cloudy 8000 ft
Overcast 9000 ft
2024/05/16 03:55 K6B0 160355Z AUTO 00000KT 10SM SCT080 OVC090 14/11 A2984 RMK AO2 T01360112
KMHT - Manchester, New Hampshire, USA
Distance from station: ESE 56mi, 90km
Updated: 07/15/2024 12:53am
Mostly cloudy
Mostly cloudy
 Wind from calm
Wind: Calm
Temperature: 72°F, 22°C
Dew Point: 63°F, 17°C
Humidity: 73%
Barometer: 29.90 inHg, 1012.5 hPa
Clouds: Mostly cloudy
Visibility: 10 miles, 16 km
Cloud details: Mostly cloudy 25000 ft
2024/07/15 04:53 KMHT 150453Z 00000KT 10SM BKN250 22/17 A2990 RMK AO2 SLP133 T02170167 403440189
KORE - Orange, Massachusetts, USA
Distance from station: S 56mi, 90km
Updated: 07/15/2024 12:52am

 Wind from calm
Wind: Calm
Temperature: 70°F, 21°C
Dew Point: 66°F, 19°C
Humidity: 88%
Barometer: 29.95 inHg, 1014.2 hPa
Visibility: 10 miles, 16 km
2024/07/15 04:52 KORE 150452Z AUTO 00000KT 10SM 21/19 A2995 RMK AO2 SLP138 T02060189 403220189 $
 
KMPV - Montpelier/Barre, Vermont, USA
Distance from station: N 58mi, 93km
Updated: 07/15/2024 12:51am
Clear
Clear
 Wind from calm
Wind: Calm
Temperature: 63°F, 17°C
Dew Point: 61°F, 16°C
Humidity: 94%
Barometer: 29.96 inHg, 1014.6 hPa
Clouds: Clear
Visibility: 10 miles, 16 km
2024/07/15 04:51 KMPV 150451Z AUTO 00000KT 10SM CLR 17/16 A2996 RMK AO2 SLP139 T01720161 402830161
KASH - Nashua/Boire Fld, New Hampshire, USA
Distance from station: SE 59mi, 95km
Updated: 07/15/2024 12:56am
Clear
Clear
 Wind from NW
Wind: NW 6 mph, 9 km/h
Temperature: 70°F, 21°C
Dew Point: 70°F, 21°C
Humidity: 100%
Barometer: 29.92 inHg, 1013.2 hPa
Clouds: Clear
Visibility: 10 miles, 16 km
2024/07/15 04:56 KASH 150456Z AUTO 32005KT 10SM CLR 21/21 A2992 RMK AO2 SLP135 T02060206 403280200
KAQW - North Adams, Massachusetts, USA
Distance from station: SW 62mi, 99km
Updated: 07/15/2024 12:52am
Clear
Clear
 Wind from calm
Wind: Calm
Temperature: 64°F, 18°C
Dew Point: 63°F, 17°C
Humidity: 94%
Barometer: 29.94 inHg, 1013.9 hPa
Clouds: Clear
Visibility: 10 miles, 16 km
2024/07/15 04:52 KAQW 150452Z AUTO 00000KT 10SM CLR 18/17 A2994 RMK AO2 SLP136 T01780172 403060156 $
 
KGFL - Glens Falls, New York, USA
Distance from station: W 63mi, 101km
Updated: 07/15/2024 12:53am
Mostly cloudy
Mostly cloudy
 Wind from calm
Wind: Calm
Temperature: 66°F, 19°C
Dew Point: 64°F, 18°C
Humidity: 94%
Barometer: 29.89 inHg, 1012.2 hPa
Clouds: Mostly cloudy
Visibility: 10 miles, 16 km
Cloud details: Mostly cloudy 11000 ft
2024/07/15 04:53 KGFL 150453Z AUTO 00000KT 10SM BKN110 19/18 A2989 RMK AO2 SLP118 T01890183 402940156
KFIT - Fitchburg, Massachusetts, USA
Distance from station: SSE 65mi, 105km
Updated: 07/15/2024 12:52am
Overcast
Overcast
 Wind from calm
Wind: Calm
Temperature: 75°F, 24°C
Dew Point: 70°F, 21°C
Humidity: 83%
Barometer: 29.93 inHg, 1013.5 hPa
Clouds: Overcast
Visibility: 10 miles, 16 km
Cloud details: Overcast 8500 ft
2024/07/15 04:52 KFIT 150452Z AUTO 00000KT 10SM OVC085 24/21 A2993 RMK AO2 SLP134 T02390211 403280206
KDAW - Rochester, New Hampshire, USA
Distance from station: E 73mi, 118km
Updated: 07/15/2024 12:51am
Clear
Clear
 Wind from calm
Wind: Calm
Temperature: 70°F, 21°C
Dew Point: 63°F, 17°C
Humidity: 78%
Barometer: 29.90 inHg, 1012.5 hPa
Clouds: Clear
Visibility: 10 miles, 16 km
2024/07/15 04:51 KDAW 150451Z AUTO 00000KT 10SM CLR 21/17 A2990 RMK AO2 SLP121 T02110172 403440189
 
K1V4 - St. Johnsbury, Vermont, USA
Distance from station: NNE 74mi, 119km
Updated: 07/15/2024 12:54am

 
Temperature: 66°F, 19°C
Dew Point: 63°F, 17°C
Humidity: 88%
Barometer: 29.90 inHg, 1012.5 hPa
2024/07/15 04:54 K1V4 150454Z AUTO 19/17 A2990 RMK AO1 SLP111 T01940172 403110172
KLWM - Lawrence, Massachusetts, USA
Distance from station: SE 77mi, 124km
Updated: 07/15/2024 12:54am
Clear
Clear
 Wind from S
Wind: S 5 mph, 7 km/h
Temperature: 73°F, 23°C
Dew Point: 66°F, 19°C
Humidity: 78%
Barometer: 29.92 inHg, 1013.2 hPa
Clouds: Clear
Visibility: 10 miles, 16 km
2024/07/15 04:54 KLWM 150454Z AUTO 19004KT 10SM CLR 23/19 A2992 RMK AO2 SLP131 T02330189 403280200



Flag Counter
free counter page views since 4/29/2009